GW1109 Weather Reports


Display with metric or nautical units.
time (UTC)temp
F
wind
direction
speed
MPH
gust
MPH
rain 1hr
in
rain 24hr
in
rain mn
in
humidity
%
barometer
mb
20240523131542 77 292 2.0 11.0 0.00 0.00 0.00 68 1008.9
20240523130033 77 252 3.0 11.0 0.00 0.00 0.00 71 1009.1
20240523124531 75 247 3.0 9.0 0.00 0.00 0.00 74 1009.0
20240523123033 74 292 5.0 10.0 0.00 0.00 0.00 76 1009.1
20240523121534 72 280 1.0 7.0 0.00 0.00 0.00 83 1009.2
20240523120036 71 271 4.0 9.0 0.00 0.00 0.00 81 1009.1
20240523114530 70 264 5.0 11.0 0.00 0.00 0.00 84 1009.3
20240523113034 69 268 4.0 9.0 0.00 0.00 0.00 86 1009.2
20240523111532 69 247 4.0 9.0 0.00 0.00 0.00 85 1009.2
20240523110032 70 259 2.0 7.0 0.00 0.00 0.00 84 1009.1
20240523104529 69 226 3.0 9.0 0.00 0.00 0.00 87 1009.1
20240523103037 68 242 2.0 7.0 0.00 0.00 0.00 89 1009.1
20240523101535 68 244 3.0 9.0 0.00 0.00 0.00 90 1009.0
20240523100032 67 243 4.0 8.0 0.00 0.00 0.00 91 1009.0
20240523094530 67 232 4.0 8.0 0.00 0.00 0.00 91 1009.0
20240523093033 67 312 2.0 8.0 0.00 0.00 0.00 90 1009.0
20240523091533 67 240 1.0 6.0 0.00 0.00 0.00 90 1008.6
20240523090032 67 266 2.0 6.0 0.00 0.00 0.00 88 1008.6
20240523084536 68 257 3.0 8.0 0.00 0.00 0.00 87 1008.6
20240523083035 68 227 2.0 6.0 0.00 0.00 0.00 87 1008.6
20240523081548 68 240 1.0 7.0 0.00 0.00 0.00 87 1008.6
20240523080032 68 264 1.0 6.0 0.00 0.00 0.00 87 1008.8
20240523074532 68 315 0.0 4.0 0.00 0.00 0.00 87 1008.9
20240523073028 68 252 1.0 4.0 0.00 0.00 0.00 87 1009.1
20240523071536 68 217 2.0 7.0 0.00 0.00 0.00 86 1009.1
20240523070038 68 269 2.0 7.0 0.00 0.00 0.00 85 1009.3
20240523064535 68 0 2.0 6.0 0.00 0.00 0.00 85 1009.4
20240523063032 68 0 2.0 5.0 0.00 0.00 0.00 85 1009.5
20240523061551 69 221 1.0 7.0 0.00 0.00 0.00 84 1009.5
20240523060038 69 231 2.0 7.0 0.00 0.00 0.00 83 1009.6
20240523054532 69 292 3.0 8.0 0.00 0.00 0.00 81 1009.9
20240523053026 70 245 3.0 8.0 0.00 0.00 0.00 80 1009.6
20240523051543 70 247 3.0 11.0 0.00 0.00 0.00 78 1009.6
20240523050035 70 278 5.0 13.0 0.00 0.00 0.00 77 1009.4
20240523044533 71 232 5.0 10.0 0.00 0.00 0.00 76 1009.3
20240523043042 71 228 6.0 12.0 0.00 0.00 0.00 75 1009.3
20240523041539 71 249 4.0 11.0 0.00 0.00 0.00 75 1009.3
20240523040056 72 227 5.0 11.0 0.00 0.00 0.00 74 1009.2
20240523034536 72 229 5.0 11.0 0.00 0.00 0.00 73 1009.2
20240523033029 72 227 4.0 9.0 0.00 0.00 0.00 73 1009.3
20240523031545 72 223 3.0 8.0 0.00 0.00 0.00 73 1009.3
20240523030029 73 233 3.0 9.0 0.00 0.00 0.00 71 1009.3
20240523024530 73 238 3.0 7.0 0.00 0.00 0.00 70 1009.4
20240523023102 74 234 3.0 8.0 0.00 0.00 0.00 67 1009.6
20240523021542 75 238 5.0 9.0 0.00 0.00 0.00 65 1009.6
20240523020028 76 207 3.0 11.0 0.00 0.00 0.00 64 1009.9
20240523014529 76 231 4.0 11.0 0.00 0.00 0.00 63 1009.9
20240523013034 76 207 6.0 16.0 0.00 0.00 0.00 61 1009.9
20240523011532 76 186 4.0 14.0 0.00 0.00 0.00 62 1009.8
20240523010030 76 227 4.0 8.0 0.00 0.00 0.00 62 1009.7
20240523004535 76 225 2.0 10.0 0.00 0.07 0.00 62 1009.5
20240523003032 75 263 3.0 9.0 0.00 0.07 0.00 61 1009.4
20240523001532 76 200 1.0 5.0 0.00 0.07 0.00 58 1009.4
20240523000036 77 200 1.0 4.0 0.00 0.07 0.00 54 1009.2
20240522234529 79 188 2.0 6.0 0.00 0.13 0.00 51 1008.9
20240522233038 80 216 2.0 7.0 0.00 0.13 0.00 49 1008.9
20240522231541 81 193 1.0 7.0 0.00 0.13 0.00 48 1009.1
20240522230042 82 143 1.0 5.0 0.00 0.13 0.00 46 1009.0
20240522224541 83 223 2.0 10.0 0.00 0.13 0.00 43 1008.9
20240522223029 83 202 3.0 9.0 0.00 0.13 0.00 43 1008.9
20240522221532 84 194 5.0 14.0 0.00 0.13 0.00 42 1008.9
20240522220035 84 146 4.0 11.0 0.00 0.13 0.00 40 1009.1
20240522214538 85 184 5.0 14.0 0.00 0.34 0.00 41 1009.1
20240522213037 86 182 8.0 16.0 0.00 0.34 0.00 40 1008.9
20240522211531 87 194 3.0 9.0 0.00 0.34 0.00 42 1009.0
20240522210032 87 171 4.0 11.0 0.00 0.34 0.00 36 1009.3
20240522204539 86 251 5.0 10.0 0.00 0.34 0.00 39 1009.3
20240522203030 86 242 6.0 15.0 0.00 0.34 0.00 38 1009.4
20240522201542 87 247 4.0 11.0 0.00 0.34 0.00 38 1009.4
20240522200041 86 218 5.0 15.0 0.00 0.34 0.00 37 1009.5
20240522194538 87 254 6.0 12.0 0.00 0.34 0.00 37 1009.6
20240522193035 87 228 5.0 12.0 0.00 0.34 0.00 40 1009.8
20240522191538 86 197 5.0 12.0 0.00 0.34 0.00 42 1010.0
20240522190039 85 148 5.0 13.0 0.00 0.34 0.00 40 1010.2
20240522184533 86 222 4.0 11.0 0.00 0.34 0.00 40 1010.2
20240522183033 86 230 5.0 13.0 0.00 0.34 0.00 40 1010.4
20240522181558 85 265 4.0 13.0 0.00 0.34 0.00 42 1010.5
20240522180037 85 267 5.0 14.0 0.00 0.34 0.00 45 1010.7
20240522174709 85 300 3.0 13.0 0.00 0.34 0.00 44 1010.7
20240522174305 84 238 6.0 13.0 0.00 0.34 0.00 44 1011.1
20240522173112 84 215 4.0 15.0 0.00 0.34 0.00 49 1011.1
20240522171034 83 213 6.0 12.0 0.00 0.34 0.00 51 1011.3
20240522165136 83 201 4.0 14.0 0.00 0.34 0.00 54 1011.4
20240522163237 82 278 6.0 11.0 0.00 0.34 0.00 54 1011.6
20240522161534 81 233 6.0 12.0 0.00 0.34 0.00 54 1011.8
20240522160044 80 203 6.0 10.0 0.00 0.34 0.00 58 1012.1
20240522154536 80 229 5.0 11.0 0.00 0.34 0.00 63 1012.3
20240522153034 80 238 6.0 12.0 0.00 0.34 0.00 62 1012.5
20240522151531 79 254 5.0 11.0 0.00 0.34 0.00 63 1012.5
20240522150033 78 243 3.0 7.0 0.00 0.34 0.00 68 1012.5
20240522144534 77 277 3.0 8.0 0.00 0.34 0.00 68 1012.4
20240522143031 77 215 3.0 6.0 0.00 0.34 0.00 69 1012.5
20240522141536 77 261 3.0 10.0 0.00 0.34 0.00 67 1012.4
20240522140036 76 239 6.0 10.0 0.00 0.34 0.00 68 1012.6
20240522134535 76 267 5.0 11.0 0.00 0.34 0.00 69 1012.7
20240522133032 75 257 5.0 9.0 0.00 0.34 0.00 74 1012.9